Time;durP1;ratioP1;P1;durP2;ratioP2;P2;SDS_P1;SDS_P2;PMS_P1;PMS_P2;Temp;Humidity;BMP_temperature;BMP_pressure;BME280_temperature;BME280_humidity;BME280_pressure;Samples;Min_cycle;Max_cycle;Signal;HPM_P1;HPM_P2
2023/07/23 00:02:23;;;;;;;16.67;4.68;;;15.70;99.90;;;;;;5155028;27;20499;-48
2023/07/23 00:04:49;;;;;;;12.23;4.38;;;15.70;99.90;;;;;;5154905;27;20026;-44
2023/07/23 00:07:15;;;;;;;12.45;4.80;;;15.70;99.90;;;;;;5154776;27;20361;-43
2023/07/23 00:09:40;;;;;;;11.15;4.20;;;15.70;99.90;;;;;;5154825;27;20054;-51
2023/07/23 00:12:06;;;;;;;12.15;3.92;;;15.70;99.90;;;;;;5154850;27;20023;-48
2023/07/23 00:14:32;;;;;;;11.73;4.25;;;15.70;99.90;;;;;;5154657;27;20054;-49
2023/07/23 00:16:57;;;;;;;11.57;4.40;;;15.70;99.90;;;;;;5154763;27;20044;-42
2023/07/23 00:19:23;;;;;;;11.60;3.65;;;15.70;99.90;;;;;;5154526;27;20025;-43
2023/07/23 00:21:49;;;;;;;9.80;4.25;;;15.70;99.90;;;;;;5154763;27;20030;-47
2023/07/23 00:24:16;;;;;;;11.85;4.13;;;15.70;99.90;;;;;;5154222;27;20070;-42
2023/07/23 00:26:42;;;;;;;9.13;3.22;;;15.70;99.90;;;;;;5140016;27;20019;-47
2023/07/23 00:29:07;;;;;;;17.38;4.38;;;15.70;99.90;;;;;;5154555;27;20567;-46
2023/07/23 00:31:33;;;;;;;10.63;4.10;;;15.70;99.90;;;;;;5154305;27;20067;-44
2023/07/23 00:33:59;;;;;;;11.82;3.75;;;15.70;99.90;;;;;;5154423;27;20018;-43
2023/07/23 00:36:24;;;;;;;8.02;2.92;;;15.70;99.90;;;;;;5154244;27;20360;-44
2023/07/23 00:38:50;;;;;;;11.02;3.35;;;15.70;99.90;;;;;;5154165;27;20031;-44
2023/07/23 00:41:15;;;;;;;8.48;3.00;;;15.70;99.90;;;;;;5154207;27;20033;-44
2023/07/23 00:43:41;;;;;;;10.68;3.10;;;15.70;99.90;;;;;;5153874;27;20109;-45
2023/07/23 00:46:08;;;;;;;9.60;2.70;;;15.70;99.90;;;;;;5154120;27;20110;-43
2023/07/23 00:48:34;;;;;;;8.65;2.97;;;15.70;99.90;;;;;;5154084;27;20034;-44
2023/07/23 00:51:00;;;;;;;9.95;2.97;;;15.70;99.90;;;;;;5153625;27;20410;-45
2023/07/23 00:53:26;;;;;;;7.65;2.97;;;15.70;99.90;;;;;;5153941;27;20033;-46
2023/07/23 00:55:53;;;;;;;8.40;2.47;;;15.70;99.90;;;;;;5153249;27;20019;-43
2023/07/23 00:58:19;;;;;;;10.32;2.85;;;15.70;99.90;;;;;;5153879;27;20088;-42
2023/07/23 01:00:44;;;;;;;6.65;2.55;;;15.70;99.90;;;;;;5152421;27;20357;-42
2023/07/23 01:03:10;;;;;;;6.97;2.28;;;15.70;99.90;;;;;;5153679;27;20402;-45
2023/07/23 01:05:38;;;;;;;7.55;2.13;;;15.70;99.90;;;;;;5153895;27;20023;-42
2023/07/23 01:08:04;;;;;;;8.75;2.50;;;15.70;99.90;;;;;;5153889;27;20067;-46
2023/07/23 01:10:33;;;;;;;8.45;2.17;;;15.70;99.90;;;;;;5152749;27;20459;-43
2023/07/23 01:12:59;;;;;;;7.07;2.35;;;15.70;99.90;;;;;;5153513;27;20014;-49
2023/07/23 01:15:26;;;;;;;12.40;2.13;;;15.70;99.90;;;;;;5153612;27;20106;-43
2023/07/23 01:17:53;;;;;;;6.75;2.13;;;15.70;99.90;;;;;;5153228;27;20027;-43
2023/07/23 01:20:18;;;;;;;7.72;2.17;;;15.70;99.90;;;;;;5132594;27;20023;-43
2023/07/23 01:22:44;;;;;;;6.18;1.83;;;15.70;99.90;;;;;;5153115;27;20030;-42
2023/07/23 01:25:10;;;;;;;7.25;2.30;;;15.70;99.90;;;;;;5149437;27;20027;-45
2023/07/23 01:27:35;;;;;;;7.53;2.58;;;15.70;99.90;;;;;;5142761;27;20487;-49
2023/07/23 01:30:01;;;;;;;7.30;2.53;;;15.70;99.90;;;;;;5153164;27;20042;-47
2023/07/23 01:32:27;;;;;;;9.52;2.70;;;15.70;99.90;;;;;;5153220;27;20059;-47
2023/07/23 01:34:54;;;;;;;6.88;2.03;;;15.80;99.90;;;;;;5153215;27;20026;-48
2023/07/23 01:37:20;;;;;;;7.75;2.42;;;15.80;99.90;;;;;;5153144;27;20018;-50
2023/07/23 01:39:46;;;;;;;7.50;2.45;;;15.80;99.90;;;;;;5153064;27;20395;-49
2023/07/23 01:42:12;;;;;;;8.20;2.85;;;15.80;99.90;;;;;;5151082;27;20023;-46
2023/07/23 01:44:38;;;;;;;10.00;3.33;;;15.80;99.90;;;;;;5152946;27;20491;-49
2023/07/23 01:47:04;;;;;;;11.25;2.88;;;15.80;99.90;;;;;;5152765;27;20025;-46
2023/07/23 01:49:30;;;;;;;6.10;2.75;;;15.80;99.90;;;;;;5152811;27;20050;-47
2023/07/23 01:51:55;;;;;;;10.52;2.67;;;15.80;99.90;;;;;;5152558;27;20023;-47
2023/07/23 01:54:21;;;;;;;11.13;2.38;;;15.80;99.90;;;;;;5152774;27;20106;-54
2023/07/23 01:56:47;;;;;;;8.13;2.92;;;15.90;99.90;;;;;;5152794;27;20042;-43
2023/07/23 01:59:13;;;;;;;6.68;2.42;;;15.80;99.90;;;;;;5152638;27;20023;-44
2023/07/23 02:01:39;;;;;;;8.80;2.55;;;15.90;99.90;;;;;;5152910;27;20471;-53
2023/07/23 02:04:05;;;;;;;10.55;2.67;;;15.90;99.90;;;;;;5152541;27;20030;-55
2023/07/23 02:06:30;;;;;;;9.07;2.70;;;15.90;99.90;;;;;;5152552;27;20022;-51
2023/07/23 02:08:56;;;;;;;6.22;1.92;;;15.90;99.90;;;;;;5152549;27;20046;-44
2023/07/23 02:11:22;;;;;;;7.18;2.20;;;15.90;99.90;;;;;;5152591;27;20090;-44
2023/07/23 02:13:47;;;;;;;7.65;2.38;;;15.90;99.90;;;;;;5152725;27;20071;-46
2023/07/23 02:16:19;;;;;;;13.98;2.72;;;15.90;99.90;;;;;;5152425;27;20490;-43
2023/07/23 02:18:45;;;;;;;9.23;2.47;;;15.90;99.90;;;;;;5152550;27;20022;-46
2023/07/23 02:21:10;;;;;;;8.02;2.05;;;15.90;99.90;;;;;;5151586;27;20022;-42
2023/07/23 02:23:36;;;;;;;10.50;2.05;;;15.90;99.90;;;;;;5152457;27;20443;-49
2023/07/23 02:26:02;;;;;;;6.50;1.67;;;15.90;99.90;;;;;;5140929;27;20034;-45
2023/07/23 02:28:27;;;;;;;6.32;1.58;;;16.00;99.90;;;;;;5149553;27;20464;-49
2023/07/23 02:30:56;;;;;;;4.60;1.85;;;16.00;99.90;;;;;;5152355;27;20062;-49
2023/07/23 02:33:22;;;;;;;6.68;1.63;;;16.00;99.90;;;;;;5152062;27;20030;-43
2023/07/23 02:35:48;;;;;;;3.58;1.42;;;16.00;99.90;;;;;;5150951;27;20395;-55
2023/07/23 02:38:13;;;;;;;6.68;1.52;;;16.00;99.90;;;;;;5152131;27;20030;-46
2023/07/23 02:40:39;;;;;;;6.75;1.83;;;16.00;99.90;;;;;;5152174;27;20038;-42
2023/07/23 02:43:05;;;;;;;4.13;1.38;;;16.00;99.90;;;;;;5152196;27;20050;-51
2023/07/23 02:45:30;;;;;;;3.53;1.33;;;16.00;99.90;;;;;;5152104;27;20029;-46
2023/07/23 02:47:56;;;;;;;3.60;1.13;;;16.00;99.90;;;;;;5152099;27;20594;-57
2023/07/23 02:50:22;;;;;;;5.40;1.60;;;16.00;99.90;;;;;;5152018;27;20029;-53
2023/07/23 02:52:47;;;;;;;4.18;1.20;;;16.10;99.90;;;;;;5152168;27;20417;-45
2023/07/23 02:55:13;;;;;;;4.47;1.52;;;16.10;99.90;;;;;;5152181;27;20122;-48
2023/07/23 02:57:39;;;;;;;2.95;1.35;;;16.10;99.90;;;;;;5151633;27;20070;-47
2023/07/23 03:00:06;;;;;;;5.68;1.67;;;16.10;99.90;;;;;;5151983;27;20033;-51
2023/07/23 03:02:31;;;;;;;5.65;1.67;;;16.10;99.90;;;;;;5151508;27;20019;-51
2023/07/23 03:04:57;;;;;;;2.10;0.88;;;16.10;99.90;;;;;;5151770;27;20031;-57
2023/07/23 03:07:22;;;;;;;2.22;0.82;;;16.10;99.90;;;;;;5151822;27;20010;-43
2023/07/23 03:09:48;;;;;;;2.83;1.00;;;16.10;99.90;;;;;;5151547;27;20455;-50
2023/07/23 03:12:14;;;;;;;8.25;1.13;;;16.20;99.90;;;;;;5151980;27;20026;-44
2023/07/23 03:14:39;;;;;;;3.75;1.10;;;16.20;99.90;;;;;;5151593;27;20417;-51
2023/07/23 03:17:05;;;;;;;3.65;0.95;;;16.20;99.90;;;;;;5151618;27;20019;-51
2023/07/23 03:19:30;;;;;;;2.58;0.77;;;16.20;99.90;;;;;;5151375;27;20471;-53
2023/07/23 03:21:56;;;;;;;1.63;0.63;;;16.20;99.90;;;;;;5151900;27;20391;-47
2023/07/23 03:24:21;;;;;;;3.83;0.82;;;16.20;99.90;;;;;;5151504;27;20074;-46
2023/07/23 03:26:47;;;;;;;3.28;0.70;;;16.20;99.90;;;;;;5137307;27;20026;-45
2023/07/23 03:29:13;;;;;;;1.45;0.68;;;16.20;99.90;;;;;;5151529;27;20027;-50
2023/07/23 03:31:38;;;;;;;1.88;0.60;;;16.30;99.90;;;;;;5151520;27;20031;-47
2023/07/23 03:34:04;;;;;;;3.25;0.57;;;16.30;99.90;;;;;;5138838;27;20022;-46
2023/07/23 03:36:29;;;;;;;1.70;0.70;;;16.30;99.90;;;;;;5134672;27;20106;-43
2023/07/23 03:38:55;;;;;;;2.95;0.70;;;16.30;99.90;;;;;;5134435;27;20023;-42
2023/07/23 03:41:20;;;;;;;5.78;0.70;;;16.40;99.90;;;;;;5134710;27;20015;-52
2023/07/23 03:43:47;;;;;;;1.65;0.60;;;16.30;99.90;;;;;;5134547;27;20051;-49
2023/07/23 03:46:13;;;;;;;0.98;0.38;;;16.40;99.90;;;;;;5134743;27;20050;-49
2023/07/23 03:48:39;;;;;;;2.60;0.75;;;16.40;99.90;;;;;;5134657;27;20438;-51
2023/07/23 03:51:04;;;;;;;4.47;1.00;;;16.40;99.90;;;;;;5134548;27;20053;-46
2023/07/23 03:53:30;;;;;;;2.35;0.70;;;16.40;99.90;;;;;;5134707;27;20023;-49
2023/07/23 03:55:56;;;;;;;6.18;0.63;;;16.40;99.90;;;;;;5134353;27;20103;-44
2023/07/23 03:58:21;;;;;;;1.33;0.52;;;16.40;99.90;;;;;;5134634;27;20516;-46
2023/07/23 04:00:47;;;;;;;0.82;0.50;;;16.40;99.90;;;;;;5134189;27;20027;-43
2023/07/23 04:03:12;;;;;;;1.23;0.40;;;16.40;99.90;;;;;;5133908;27;20067;-44
2023/07/23 04:05:38;;;;;;;1.15;0.65;;;16.50;99.90;;;;;;5133737;27;20042;-44
2023/07/23 04:08:04;;;;;;;0.63;0.40;;;16.50;99.90;;;;;;5134306;27;20019;-51
2023/07/23 04:10:29;;;;;;;0.75;0.50;;;16.50;99.90;;;;;;5134403;27;20132;-46
2023/07/23 04:12:55;;;;;;;0.45;0.30;;;16.50;99.90;;;;;;5134059;27;20042;-43
2023/07/23 04:15:21;;;;;;;2.38;0.38;;;16.60;99.90;;;;;;5145304;27;20403;-43
2023/07/23 04:17:46;;;;;;;0.47;0.38;;;16.50;99.90;;;;;;5137189;27;20036;-44
2023/07/23 04:20:12;;;;;;;0.68;0.47;;;16.50;99.90;;;;;;5139934;27;20027;-44
2023/07/23 04:22:38;;;;;;;4.38;0.50;;;16.60;99.90;;;;;;5151471;27;20021;-46
2023/07/23 04:25:04;;;;;;;0.57;0.32;;;16.60;99.90;;;;;;5144494;27;20031;-44
2023/07/23 04:27:29;;;;;;;3.83;0.40;;;16.60;99.90;;;;;;5146798;27;20025;-53
2023/07/23 04:29:55;;;;;;;4.28;0.52;;;16.60;99.90;;;;;;5145622;27;20023;-50
2023/07/23 04:32:21;;;;;;;0.50;0.32;;;16.70;99.90;;;;;;5148410;27;20102;-44
2023/07/23 04:34:47;;;;;;;1.67;0.43;;;16.70;99.90;;;;;;5147617;27;20149;-47
2023/07/23 04:37:13;;;;;;;4.22;0.73;;;16.70;99.90;;;;;;5144540;27;20463;-44
2023/07/23 04:39:39;;;;;;;1.83;0.80;;;16.70;99.90;;;;;;5143576;27;20030;-51
2023/07/23 04:42:05;;;;;;;4.35;0.65;;;16.70;99.90;;;;;;5143185;27;20437;-48
2023/07/23 04:44:30;;;;;;;2.08;0.70;;;16.70;99.90;;;;;;5151433;27;20022;-52
2023/07/23 04:46:56;;;;;;;5.43;0.80;;;16.70;99.90;;;;;;5148316;27;20030;-44
2023/07/23 04:49:21;;;;;;;7.72;1.13;;;16.70;99.90;;;;;;5132922;27;20080;-47
2023/07/23 04:51:47;;;;;;;6.57;1.42;;;16.70;99.90;;;;;;5132963;27;20019;-49
2023/07/23 04:54:13;;;;;;;2.17;0.73;;;16.70;99.90;;;;;;5133412;27;20019;-52
2023/07/23 04:56:38;;;;;;;8.23;1.40;;;16.70;99.90;;;;;;5133162;27;20144;-44
2023/07/23 04:59:04;;;;;;;7.03;1.30;;;16.70;99.90;;;;;;5133001;27;20015;-44
2023/07/23 05:01:29;;;;;;;6.65;1.65;;;16.80;99.90;;;;;;5141428;27;20026;-45
2023/07/23 05:03:55;;;;;;;9.82;1.40;;;16.80;99.90;;;;;;5133824;27;20042;-54
2023/07/23 05:06:21;;;;;;;5.65;1.58;;;16.80;99.90;;;;;;5150129;27;20030;-49
2023/07/23 05:08:46;;;;;;;3.65;1.52;;;16.80;99.90;;;;;;5136618;27;20479;-50
2023/07/23 05:11:12;;;;;;;7.75;1.52;;;16.80;99.90;;;;;;5133038;27;20019;-45
2023/07/23 05:13:37;;;;;;;6.53;1.67;;;16.80;99.90;;;;;;5133047;27;20757;-52
2023/07/23 05:16:03;;;;;;;3.88;1.48;;;16.80;99.90;;;;;;5132714;27;21329;-52
2023/07/23 05:18:30;;;;;;;9.90;2.15;;;16.80;99.90;;;;;;5141724;27;20143;-52
2023/07/23 05:20:56;;;;;;;3.65;1.40;;;16.80;99.90;;;;;;5134927;27;20020;-53
2023/07/23 05:23:22;;;;;;;5.07;1.58;;;16.80;99.90;;;;;;5132761;27;20050;-54
2023/07/23 05:25:48;;;;;;;4.38;1.83;;;16.80;99.90;;;;;;5131040;27;20070;-45
2023/07/23 05:28:14;;;;;;;4.53;1.83;;;16.80;99.90;;;;;;5130599;27;20016;-48
2023/07/23 05:30:40;;;;;;;4.70;1.52;;;16.80;99.90;;;;;;5130481;27;20081;-50
2023/07/23 05:33:06;;;;;;;6.25;1.83;;;16.80;99.90;;;;;;5130386;27;20483;-47
2023/07/23 05:35:31;;;;;;;11.40;1.90;;;16.80;99.90;;;;;;5130648;27;20026;-45
2023/07/23 05:37:57;;;;;;;9.85;2.00;;;16.80;99.90;;;;;;5130676;27;20090;-47
2023/07/23 05:40:23;;;;;;;6.90;1.88;;;16.80;99.90;;;;;;5131700;27;20025;-47
2023/07/23 05:42:48;;;;;;;6.68;1.95;;;16.80;99.90;;;;;;5132311;27;20534;-46
2023/07/23 05:45:14;;;;;;;10.57;1.88;;;16.90;99.90;;;;;;5132114;27;20027;-47
2023/07/23 05:47:39;;;;;;;4.05;1.85;;;16.90;99.90;;;;;;5132551;27;20030;-47
2023/07/23 05:50:06;;;;;;;9.13;1.92;;;16.90;99.90;;;;;;5132117;27;20514;-50
2023/07/23 05:52:31;;;;;;;6.97;1.60;;;16.90;99.90;;;;;;5132150;27;20047;-51
2023/07/23 05:54:57;;;;;;;3.85;1.55;;;16.90;99.90;;;;;;5131975;27;20026;-49
2023/07/23 05:57:22;;;;;;;4.72;1.50;;;17.00;99.90;;;;;;5131569;27;20144;-46
2023/07/23 05:59:48;;;;;;;6.05;2.15;;;17.00;99.90;;;;;;5132066;27;20079;-54
2023/07/23 06:02:14;;;;;;;9.57;2.17;;;17.00;99.90;;;;;;5131875;27;20454;-46
2023/07/23 06:04:39;;;;;;;9.65;1.58;;;17.10;99.90;;;;;;5131882;27;20031;-46
2023/07/23 06:07:05;;;;;;;6.65;1.67;;;17.00;99.90;;;;;;5131822;27;20084;-53
2023/07/23 06:09:31;;;;;;;4.03;1.30;;;17.10;99.90;;;;;;5131906;27;20050;-49
2023/07/23 06:11:56;;;;;;;3.78;1.40;;;17.10;99.90;;;;;;5131867;27;20019;-52
2023/07/23 06:14:22;;;;;;;9.63;2.00;;;17.10;99.90;;;;;;5131842;27;20407;-47
2023/07/23 06:16:48;;;;;;;3.83;1.38;;;17.20;99.90;;;;;;5131808;27;20026;-45
2023/07/23 06:19:14;;;;;;;7.30;1.50;;;17.20;99.90;;;;;;5131605;27;20030;-49
2023/07/23 06:21:39;;;;;;;6.18;1.70;;;17.20;99.90;;;;;;5131640;27;20023;-51
2023/07/23 06:24:05;;;;;;;9.20;1.60;;;17.20;99.90;;;;;;5131460;27;20039;-47
2023/07/23 06:26:31;;;;;;;5.70;1.70;;;17.20;99.90;;;;;;5131729;27;20619;-47
2023/07/23 06:28:56;;;;;;;6.78;1.50;;;17.10;99.90;;;;;;5131590;27;20437;-48
2023/07/23 06:31:22;;;;;;;7.47;1.80;;;17.10;99.90;;;;;;5131767;27;20094;-45
2023/07/23 06:33:47;;;;;;;6.55;1.30;;;17.10;99.90;;;;;;5131802;27;20533;-48
2023/07/23 06:36:13;;;;;;;5.20;1.50;;;17.10;99.90;;;;;;5131612;27;20055;-49
2023/07/23 06:38:39;;;;;;;5.65;1.20;;;17.10;99.90;;;;;;5131705;27;20027;-45
2023/07/23 06:41:06;;;;;;;3.15;1.42;;;17.10;99.90;;;;;;5131378;27;20364;-50
2023/07/23 06:43:32;;;;;;;3.83;1.08;;;17.10;99.90;;;;;;5137324;27;20062;-49
2023/07/23 06:45:57;;;;;;;3.75;1.48;;;17.20;99.90;;;;;;5138973;27;20027;-48
2023/07/23 06:48:28;;;;;;;6.07;1.40;;;17.20;99.90;;;;;;5148806;27;20038;-51
2023/07/23 06:50:53;;;;;;;3.38;1.40;;;17.20;99.90;;;;;;5138932;27;20038;-51
2023/07/23 06:53:19;;;;;;;7.50;1.33;;;17.20;99.90;;;;;;5136811;27;20027;-46
2023/07/23 06:56:02;;;;;;;10.15;1.60;;;17.20;99.90;;;;;;5137075;27;20039;-45
2023/07/23 06:58:29;;;;;;;4.10;1.10;;;17.30;99.90;;;;;;5137018;27;20028;-48
2023/07/23 07:00:55;;;;;;;8.98;2.03;;;17.40;99.90;;;;;;5131916;27;20054;-44
2023/07/23 07:03:21;;;;;;;8.68;1.65;;;17.40;99.90;;;;;;5135446;27;20097;-48
2023/07/23 07:05:46;;;;;;;4.60;1.52;;;17.40;99.90;;;;;;5133488;27;20031;-46
2023/07/23 07:08:12;;;;;;;7.82;2.00;;;17.40;99.90;;;;;;5135460;27;20031;-48
2023/07/23 07:10:38;;;;;;;7.47;2.05;;;17.50;99.90;;;;;;5135127;27;20411;-48
2023/07/23 07:13:03;;;;;;;11.98;2.38;;;17.70;99.90;;;;;;5135230;27;20030;-45
2023/07/23 07:15:29;;;;;;;4.55;1.83;;;17.80;99.90;;;;;;5140210;27;20019;-49
2023/07/23 07:17:55;;;;;;;7.57;1.88;;;17.90;99.90;;;;;;5135294;27;20031;-43
2023/07/23 07:20:20;;;;;;;6.03;1.45;;;18.50;99.90;;;;;;5135111;27;20027;-46
2023/07/23 07:22:46;;;;;;;5.97;1.73;;;19.10;99.90;;;;;;5134989;27;20070;-46
2023/07/23 07:25:12;;;;;;;7.18;1.73;;;19.50;99.90;;;;;;5133598;27;20050;-44
2023/07/23 07:27:38;;;;;;;5.70;1.85;;;19.60;99.90;;;;;;5134773;27;20024;-44
2023/07/23 07:30:04;;;;;;;8.02;1.55;;;19.30;99.90;;;;;;5135113;27;20019;-45
2023/07/23 07:32:29;;;;;;;6.57;1.85;;;19.10;99.90;;;;;;5134827;27;20483;-44
2023/07/23 07:34:55;;;;;;;6.57;1.77;;;19.00;99.90;;;;;;5134926;27;20029;-43
2023/07/23 07:37:21;;;;;;;6.47;1.58;;;18.90;99.90;;;;;;5145449;27;20015;-44
2023/07/23 07:39:46;;;;;;;6.80;1.90;;;18.70;99.90;;;;;;5138773;27;20027;-44
2023/07/23 07:42:12;;;;;;;6.90;1.67;;;18.70;99.90;;;;;;5134649;27;20429;-43
2023/07/23 07:44:37;;;;;;;6.50;1.20;;;18.70;99.90;;;;;;5142281;27;20043;-45
2023/07/23 07:47:03;;;;;;;2.88;1.10;;;18.50;99.90;;;;;;5135656;27;20037;-48
2023/07/23 07:49:29;;;;;;;4.75;1.23;;;18.30;99.90;;;;;;5134570;27;20020;-44
2023/07/23 07:51:54;;;;;;;6.43;1.63;;;18.30;99.90;;;;;;5134437;27;20030;-47
2023/07/23 07:54:20;;;;;;;6.38;1.33;;;18.30;99.90;;;;;;5134708;27;20031;-49
2023/07/23 07:56:46;;;;;;;8.45;1.23;;;18.30;99.90;;;;;;5134273;27;20640;-47
2023/07/23 07:59:12;;;;;;;6.78;1.10;;;18.30;99.90;;;;;;5144930;27;20026;-49
2023/07/23 08:01:38;;;;;;;6.93;1.35;;;18.30;99.90;;;;;;5133408;27;20514;-44
2023/07/23 08:04:07;;;;;;;10.30;1.73;;;18.30;99.90;;;;;;5133661;27;20031;-47
2023/07/23 08:06:34;;;;;;;2.03;0.93;;;18.30;99.90;;;;;;5132909;27;20109;-43
2023/07/23 08:09:02;;;;;;;4.82;1.33;;;18.40;99.90;;;;;;5134106;27;20047;-48
2023/07/23 08:11:29;;;;;;;6.35;1.20;;;18.40;99.90;;;;;;5134262;27;20023;-50
2023/07/23 08:13:55;;;;;;;5.43;1.45;;;18.50;99.90;;;;;;5135060;27;20033;-48
2023/07/23 08:16:21;;;;;;;5.85;1.65;;;18.50;99.90;;;;;;5138376;27;20022;-43
2023/07/23 08:18:47;;;;;;;6.45;1.65;;;18.40;99.90;;;;;;5140009;27;20027;-44
2023/07/23 08:21:13;;;;;;;3.08;0.95;;;18.30;99.90;;;;;;5137457;27;20019;-43
2023/07/23 08:23:39;;;;;;;3.10;1.10;;;18.30;99.90;;;;;;5133556;27;20106;-45
2023/07/23 08:26:07;;;;;;;5.47;1.40;;;18.30;99.90;;;;;;5133504;27;20423;-49
2023/07/23 08:28:42;;;;;;;7.13;1.38;;;18.40;99.90;;;;;;5137735;27;20035;-47
2023/07/23 08:31:07;;;;;;;5.63;1.17;;;18.50;99.90;;;;;;5133510;27;20019;-47
2023/07/23 08:33:33;;;;;;;3.95;1.20;;;18.50;99.90;;;;;;5133276;27;20038;-49
2023/07/23 08:36:00;;;;;;;4.78;1.20;;;18.60;99.90;;;;;;5133444;27;20016;-47
2023/07/23 08:38:27;;;;;;;8.45;1.35;;;18.70;99.90;;;;;;5133984;27;20015;-50
2023/07/23 08:41:02;;;;;;;3.35;0.88;;;19.00;99.90;;;;;;5133553;27;20022;-44
2023/07/23 08:43:42;;;;;;;3.80;1.30;;;19.40;99.90;;;;;;5133567;27;20080;-49
2023/07/23 08:46:21;;;;;;;10.10;1.30;;;19.90;99.90;;;;;;5133390;27;20019;-45
2023/07/23 08:48:46;;;;;;;;;;;20.00;99.90;;;;;;5131912;27;20433;-49
2023/07/23 08:51:13;;;;;;;6.88;1.63;;;20.20;99.90;;;;;;5131523;27;19967;-45
2023/07/23 08:53:38;;;;;;;6.97;1.63;;;20.20;99.90;;;;;;5131386;27;20011;-46
2023/07/23 08:56:04;;;;;;;4.13;1.52;;;20.60;99.90;;;;;;5131230;27;20047;-49
2023/07/23 08:58:31;;;;;;;5.30;1.58;;;20.90;99.90;;;;;;5131300;27;20088;-46
2023/07/23 09:00:57;;;;;;;5.40;1.40;;;20.80;99.90;;;;;;5131253;27;20054;-42
2023/07/23 09:03:22;;;;;;;4.15;1.48;;;20.70;99.90;;;;;;5132829;27;20027;-44
2023/07/23 09:05:48;;;;;;;6.45;1.65;;;21.30;99.90;;;;;;5133036;27;20030;-47
2023/07/23 09:08:14;;;;;;;4.90;1.40;;;21.80;99.90;;;;;;5133114;27;20027;-48
2023/07/23 09:10:40;;;;;;;4.50;1.50;;;22.30;99.90;;;;;;5133043;27;20494;-49
2023/07/23 09:13:14;;;;;;;4.65;1.52;;;22.30;99.90;;;;;;5133028;27;20391;-49
2023/07/23 09:15:40;;;;;;;3.75;1.20;;;22.30;99.90;;;;;;5132858;27;20388;-44
2023/07/23 09:18:07;;;;;;;7.28;1.75;;;21.90;99.90;;;;;;5133081;27;20502;-50
2023/07/23 09:20:33;;;;;;;6.18;1.73;;;21.40;99.90;;;;;;5132719;27;20487;-51
2023/07/23 09:23:07;;;;;;;5.00;1.42;;;20.90;99.90;;;;;;5111108;28;20016;-43
2023/07/23 09:25:33;;;;;;;8.55;1.80;;;20.70;99.90;;;;;;5126417;27;20042;-47
2023/07/23 09:27:59;;;;;;;6.97;2.20;;;21.10;99.90;;;;;;5132615;27;20043;-44
2023/07/23 09:30:27;;;;;;;4.50;1.75;;;21.30;99.90;;;;;;5131815;27;20435;-47
2023/07/23 09:32:57;;;;;;;6.15;1.77;;;21.50;99.90;;;;;;5132714;27;20027;-44
2023/07/23 09:35:23;;;;;;;6.03;1.55;;;22.00;99.90;;;;;;5132614;27;20475;-44
2023/07/23 09:37:59;;;;;;;4.72;1.92;;;22.40;99.90;;;;;;5132460;27;20027;-48
2023/07/23 09:40:38;;;;;;;4.90;2.08;;;22.10;99.90;;;;;;5131230;27;20046;-50
2023/07/23 09:43:05;;;;;;;3.17;1.60;;;21.80;99.90;;;;;;5113973;27;20095;-46
2023/07/23 09:45:41;;;;;;;6.50;1.77;;;21.90;99.90;;;;;;5132510;27;20053;-46
2023/07/23 09:48:07;;;;;;;8.48;2.17;;;21.90;99.90;;;;;;5132326;27;20055;-47
2023/07/23 09:50:33;;;;;;;4.43;1.98;;;21.40;99.90;;;;;;5132317;27;20034;-43
2023/07/23 09:52:58;;;;;;;6.45;1.77;;;21.20;99.90;;;;;;5132263;27;20023;-46
2023/07/23 09:55:25;;;;;;;5.75;1.80;;;21.50;99.90;;;;;;5132084;27;20054;-43
2023/07/23 09:57:52;;;;;;;7.78;2.50;;;21.60;99.90;;;;;;5132107;27;20086;-47
2023/07/23 10:00:19;;;;;;;4.68;1.80;;;21.90;99.90;;;;;;5132127;27;20019;-46
2023/07/23 10:02:48;;;;;;;5.18;1.58;;;22.00;99.90;;;;;;5132188;27;20031;-43
2023/07/23 10:05:15;;;;;;;7.38;1.73;;;22.10;99.90;;;;;;5130650;27;20035;-46
2023/07/23 10:07:42;;;;;;;7.80;2.08;;;22.00;99.90;;;;;;5132137;27;20467;-41
2023/07/23 10:10:08;;;;;;;3.90;1.67;;;22.60;99.90;;;;;;5132093;27;20027;-47
2023/07/23 10:12:34;;;;;;;3.42;1.38;;;23.10;99.90;;;;;;5131856;27;20505;-52
2023/07/23 10:15:01;;;;;;;5.65;1.75;;;23.60;99.90;;;;;;5131990;27;20023;-51
2023/07/23 10:17:28;;;;;;;3.78;1.23;;;23.80;99.90;;;;;;5131778;27;20526;-50
2023/07/23 10:19:56;;;;;;;7.25;1.70;;;24.20;99.90;;;;;;5131906;27;20492;-47
2023/07/23 10:22:24;;;;;;;5.00;2.00;;;24.60;99.90;;;;;;5131641;27;20392;-52
2023/07/23 10:24:52;;;;;;;3.83;1.35;;;25.10;99.90;;;;;;5131688;27;20483;-45
2023/07/23 10:27:18;;;;;;;7.40;2.17;;;25.10;99.90;;;;;;5131788;27;20076;-44
2023/07/23 10:30:15;;;;;;;4.30;1.67;;;25.30;99.90;;;;;;5131934;27;20019;-50
2023/07/23 10:32:41;;;;;;;3.53;1.88;;;25.10;99.90;;;;;;5131467;27;20019;-46
2023/07/23 10:35:06;;;;;;;3.90;1.33;;;24.90;99.90;;;;;;5131715;27;20375;-52
2023/07/23 10:37:32;;;;;;;4.97;1.70;;;25.00;99.90;;;;;;5131456;27;20467;-43
2023/07/23 10:40:00;;;;;;;4.50;1.42;;;25.00;99.90;;;;;;5131807;27;20055;-44
2023/07/23 10:42:33;;;;;;;4.93;1.40;;;24.80;99.90;;;;;;5131355;27;20051;-50
2023/07/23 10:45:17;;;;;;;3.13;1.33;;;24.60;99.90;;;;;;5131240;27;20031;-43
2023/07/23 10:47:49;;;;;;;5.05;1.88;;;24.80;99.90;;;;;;5131563;27;20023;-43
2023/07/23 10:50:16;;;;;;;3.25;1.55;;;24.70;99.90;;;;;;5131348;27;20025;-42
2023/07/23 10:52:45;;;;;;;5.63;1.50;;;24.30;99.90;;;;;;5131385;27;20016;-43
2023/07/23 10:55:12;;;;;;;7.07;1.60;;;24.00;99.90;;;;;;5131393;27;20028;-42
2023/07/23 10:57:42;;;;;;;3.20;1.50;;;24.10;99.90;;;;;;5131235;27;20039;-43
2023/07/23 11:00:29;;;;;;;5.03;1.63;;;24.20;99.90;;;;;;5131561;27;20048;-42
2023/07/23 11:02:56;;;;;;;7.25;1.90;;;24.50;99.90;;;;;;5131390;27;20555;-48
2023/07/23 11:05:22;;;;;;;5.18;2.03;;;24.70;99.90;;;;;;5131211;27;20118;-46
2023/07/23 11:08:23;;;;;;;6.68;1.90;;;24.90;99.90;;;;;;5129925;27;20032;-45
2023/07/23 11:10:57;;;;;;;6.85;2.05;;;25.40;99.90;;;;;;5131158;27;20439;-43
2023/07/23 11:13:25;;;;;;;4.65;1.63;;;25.10;99.90;;;;;;5131320;27;20102;-51
2023/07/23 11:15:51;;;;;;;4.15;1.73;;;25.00;99.90;;;;;;5131216;27;20016;-49
2023/07/23 11:18:19;;;;;;;3.50;1.58;;;24.80;99.90;;;;;;5131086;27;20034;-49
2023/07/23 11:20:46;;;;;;;4.30;1.33;;;24.60;99.90;;;;;;5130972;27;20027;-51
2023/07/23 11:23:12;;;;;;;3.67;1.55;;;24.60;99.90;;;;;;5130560;27;20054;-42
2023/07/23 11:25:39;;;;;;;2.83;1.35;;;24.70;99.90;;;;;;5139820;27;20075;-48
2023/07/23 11:28:05;;;;;;;4.85;1.65;;;24.80;99.90;;;;;;5133956;27;20023;-51
2023/07/23 11:30:31;;;;;;;6.28;1.90;;;25.00;99.90;;;;;;5142201;27;20394;-45
2023/07/23 11:33:02;;;;;;;3.88;1.42;;;25.00;99.90;;;;;;5131973;27;20026;-47
2023/07/23 11:35:28;;;;;;;2.83;1.30;;;24.90;99.90;;;;;;5131157;27;20563;-51
2023/07/23 11:37:54;;;;;;;5.85;1.73;;;24.50;99.90;;;;;;5141456;27;20076;-44
2023/07/23 11:40:22;;;;;;;4.22;1.75;;;24.60;99.90;;;;;;5130499;27;20016;-47
2023/07/23 11:42:47;;;;;;;5.00;1.63;;;24.50;99.90;;;;;;5130636;27;20023;-50
2023/07/23 11:45:13;;;;;;;4.55;1.65;;;24.60;99.90;;;;;;5130248;27;20054;-47
2023/07/23 11:47:53;;;;;;;4.57;1.70;;;24.70;99.90;;;;;;5130239;27;20053;-45
2023/07/23 11:50:20;;;;;;;3.17;1.50;;;24.50;99.90;;;;;;5129706;27;20019;-44
2023/07/23 11:52:48;;;;;;;2.38;1.35;;;24.40;99.90;;;;;;5130682;27;20011;-49
2023/07/23 11:55:20;;;;;;;5.28;1.88;;;24.60;99.90;;;;;;5133722;27;20502;-42
2023/07/23 11:57:57;;;;;;;2.75;1.30;;;24.40;99.90;;;;;;5134331;27;20058;-53
2023/07/23 12:00:26;;;;;;;6.93;1.70;;;24.40;99.90;;;;;;5133212;27;20034;-51
2023/07/23 12:02:52;;;;;;;7.35;2.10;;;24.30;99.90;;;;;;5134423;27;20023;-45
2023/07/23 12:05:18;;;;;;;4.65;1.70;;;24.10;99.90;;;;;;5132271;27;20102;-42
2023/07/23 12:07:44;;;;;;;3.88;2.03;;;24.10;99.90;;;;;;5133715;27;20034;-44
2023/07/23 12:10:14;;;;;;;4.93;2.05;;;23.80;99.90;;;;;;5133398;27;20383;-46
2023/07/23 12:12:40;;;;;;;4.13;1.73;;;23.30;99.90;;;;;;5133421;27;20582;-41
2023/07/23 12:15:06;;;;;;;3.97;1.73;;;23.20;99.90;;;;;;5134068;27;20027;-43
2023/07/23 12:17:33;;;;;;;4.50;1.83;;;23.30;99.90;;;;;;5133994;27;20088;-46
2023/07/23 12:19:59;;;;;;;3.88;1.70;;;23.40;99.90;;;;;;5134121;27;20227;-42
2023/07/23 12:22:24;;;;;;;5.35;1.90;;;23.40;99.90;;;;;;5133913;27;20526;-42
2023/07/23 12:24:50;;;;;;;6.43;2.15;;;23.70;99.90;;;;;;5133816;27;20092;-43
2023/07/23 12:27:15;;;;;;;3.28;1.60;;;23.70;99.90;;;;;;5133742;27;20102;-42
2023/07/23 12:29:42;;;;;;;3.80;1.65;;;23.70;99.90;;;;;;5133437;27;20027;-43
2023/07/23 12:32:21;;;;;;;3.95;1.70;;;23.70;99.90;;;;;;5133595;27;20041;-43
2023/07/23 12:34:48;;;;;;;3.58;1.58;;;23.60;99.90;;;;;;5133961;27;20019;-44
2023/07/23 12:37:15;;;;;;;5.18;1.75;;;23.50;99.90;;;;;;5131758;27;20035;-42
2023/07/23 12:39:42;;;;;;;4.90;1.77;;;23.60;99.90;;;;;;5133749;27;20027;-43
2023/07/23 12:42:08;;;;;;;4.68;2.05;;;23.90;99.90;;;;;;5133069;27;20025;-47
2023/07/23 12:44:34;;;;;;;3.70;1.42;;;24.10;99.90;;;;;;5132938;27;20042;-46